sensor_id;sensor_type;location;lat;lon;timestamp;P1;durP1;ratioP1;P2;durP2;ratioP2
36653;SDS011;22650;49.350;20.898;2023-04-15T00:01:27;0.57;;;0.30;;
36653;SDS011;22650;49.350;20.898;2023-04-15T00:04:04;0.63;;;0.60;;
36653;SDS011;22650;49.350;20.898;2023-04-15T00:06:37;4.15;;;0.70;;
36653;SDS011;22650;49.350;20.898;2023-04-15T00:09:11;1.38;;;0.68;;
36653;SDS011;22650;49.350;20.898;2023-04-15T00:11:45;1.00;;;0.70;;
36653;SDS011;22650;49.350;20.898;2023-04-15T00:14:18;0.65;;;0.40;;
36653;SDS011;22650;49.350;20.898;2023-04-15T00:16:52;0.90;;;0.57;;
36653;SDS011;22650;49.350;20.898;2023-04-15T00:19:29;1.17;;;0.55;;
36653;SDS011;22650;49.350;20.898;2023-04-15T00:22:03;1.63;;;0.50;;
36653;SDS011;22650;49.350;20.898;2023-04-15T00:24:37;1.60;;;0.77;;
36653;SDS011;22650;49.350;20.898;2023-04-15T00:27:11;0.98;;;0.70;;
36653;SDS011;22650;49.350;20.898;2023-04-15T00:29:44;1.83;;;0.77;;
36653;SDS011;22650;49.350;20.898;2023-04-15T00:32:19;1.38;;;0.75;;
36653;SDS011;22650;49.350;20.898;2023-04-15T00:34:54;3.22;;;0.85;;
36653;SDS011;22650;49.350;20.898;2023-04-15T00:37:28;1.15;;;0.93;;
36653;SDS011;22650;49.350;20.898;2023-04-15T00:40:01;1.10;;;0.63;;
36653;SDS011;22650;49.350;20.898;2023-04-15T00:42:36;1.23;;;0.50;;
36653;SDS011;22650;49.350;20.898;2023-04-15T00:45:10;1.45;;;0.77;;
36653;SDS011;22650;49.350;20.898;2023-04-15T00:47:45;4.05;;;0.90;;
36653;SDS011;22650;49.350;20.898;2023-04-15T00:50:20;1.15;;;0.47;;
36653;SDS011;22650;49.350;20.898;2023-04-15T00:52:54;0.90;;;0.80;;
36653;SDS011;22650;49.350;20.898;2023-04-15T00:55:27;1.08;;;0.85;;
36653;SDS011;22650;49.350;20.898;2023-04-15T00:58:01;2.28;;;1.00;;
36653;SDS011;22650;49.350;20.898;2023-04-15T01:00:34;2.53;;;0.95;;
36653;SDS011;22650;49.350;20.898;2023-04-15T01:03:08;1.38;;;0.88;;
36653;SDS011;22650;49.350;20.898;2023-04-15T01:05:44;1.58;;;0.70;;
36653;SDS011;22650;49.350;20.898;2023-04-15T01:08:17;0.77;;;0.68;;
36653;SDS011;22650;49.350;20.898;2023-04-15T01:10:51;3.25;;;0.93;;
36653;SDS011;22650;49.350;20.898;2023-04-15T01:13:25;1.42;;;0.75;;
36653;SDS011;22650;49.350;20.898;2023-04-15T01:15:59;2.33;;;0.98;;
36653;SDS011;22650;49.350;20.898;2023-04-15T01:18:33;2.15;;;0.98;;
36653;SDS011;22650;49.350;20.898;2023-04-15T01:21:11;1.00;;;0.80;;
36653;SDS011;22650;49.350;20.898;2023-04-15T01:23:45;3.50;;;1.13;;
36653;SDS011;22650;49.350;20.898;2023-04-15T01:26:21;1.92;;;1.45;;
36653;SDS011;22650;49.350;20.898;2023-04-15T01:28:55;4.30;;;1.35;;
36653;SDS011;22650;49.350;20.898;2023-04-15T01:31:28;1.83;;;1.25;;
36653;SDS011;22650;49.350;20.898;2023-04-15T01:34:02;2.03;;;1.13;;
36653;SDS011;22650;49.350;20.898;2023-04-15T01:36:54;3.00;;;1.15;;
36653;SDS011;22650;49.350;20.898;2023-04-15T01:39:28;1.95;;;1.50;;
36653;SDS011;22650;49.350;20.898;2023-04-15T01:42:03;1.20;;;0.85;;
36653;SDS011;22650;49.350;20.898;2023-04-15T01:44:36;1.20;;;0.82;;
36653;SDS011;22650;49.350;20.898;2023-04-15T01:47:09;1.92;;;0.73;;
36653;SDS011;22650;49.350;20.898;2023-04-15T01:49:45;1.45;;;0.70;;
36653;SDS011;22650;49.350;20.898;2023-04-15T01:52:18;1.15;;;0.77;;
36653;SDS011;22650;49.350;20.898;2023-04-15T01:54:52;2.88;;;1.17;;
36653;SDS011;22650;49.350;20.898;2023-04-15T01:57:27;2.42;;;1.85;;
36653;SDS011;22650;49.350;20.898;2023-04-15T02:00:00;2.92;;;1.73;;
36653;SDS011;22650;49.350;20.898;2023-04-15T02:02:43;3.03;;;1.73;;
36653;SDS011;22650;49.350;20.898;2023-04-15T02:05:17;2.10;;;1.20;;
36653;SDS011;22650;49.350;20.898;2023-04-15T02:07:51;2.63;;;1.60;;
36653;SDS011;22650;49.350;20.898;2023-04-15T02:10:25;1.27;;;1.08;;
36653;SDS011;22650;49.350;20.898;2023-04-15T02:13:00;2.53;;;1.25;;
36653;SDS011;22650;49.350;20.898;2023-04-15T02:15:34;2.78;;;1.35;;
36653;SDS011;22650;49.350;20.898;2023-04-15T02:18:07;2.25;;;1.17;;
36653;SDS011;22650;49.350;20.898;2023-04-15T02:20:41;2.08;;;1.27;;
36653;SDS011;22650;49.350;20.898;2023-04-15T02:23:15;1.95;;;1.10;;
36653;SDS011;22650;49.350;20.898;2023-04-15T02:25:48;3.63;;;1.30;;
36653;SDS011;22650;49.350;20.898;2023-04-15T02:28:26;1.40;;;1.00;;
36653;SDS011;22650;49.350;20.898;2023-04-15T02:30:59;1.58;;;1.17;;
36653;SDS011;22650;49.350;20.898;2023-04-15T02:33:37;4.00;;;1.10;;
36653;SDS011;22650;49.350;20.898;2023-04-15T02:36:10;1.92;;;1.15;;
36653;SDS011;22650;49.350;20.898;2023-04-15T02:38:44;2.45;;;1.45;;
36653;SDS011;22650;49.350;20.898;2023-04-15T02:41:19;0.88;;;0.80;;
36653;SDS011;22650;49.350;20.898;2023-04-15T02:43:57;3.90;;;1.15;;
36653;SDS011;22650;49.350;20.898;2023-04-15T02:46:33;3.15;;;1.10;;
36653;SDS011;22650;49.350;20.898;2023-04-15T02:49:08;0.82;;;0.60;;
36653;SDS011;22650;49.350;20.898;2023-04-15T02:51:42;2.25;;;0.90;;
36653;SDS011;22650;49.350;20.898;2023-04-15T02:54:18;1.02;;;0.70;;
36653;SDS011;22650;49.350;20.898;2023-04-15T02:56:53;2.42;;;0.85;;
36653;SDS011;22650;49.350;20.898;2023-04-15T02:59:28;1.58;;;0.90;;
36653;SDS011;22650;49.350;20.898;2023-04-15T03:02:02;0.98;;;0.60;;
36653;SDS011;22650;49.350;20.898;2023-04-15T03:04:38;2.47;;;1.02;;
36653;SDS011;22650;49.350;20.898;2023-04-15T03:07:12;1.88;;;1.20;;
36653;SDS011;22650;49.350;20.898;2023-04-15T03:09:45;7.15;;;4.75;;
36653;SDS011;22650;49.350;20.898;2023-04-15T03:12:19;4.20;;;1.40;;
36653;SDS011;22650;49.350;20.898;2023-04-15T03:14:55;1.00;;;0.90;;
36653;SDS011;22650;49.350;20.898;2023-04-15T03:20:11;2.88;;;1.02;;
36653;SDS011;22650;49.350;20.898;2023-04-15T03:22:45;1.20;;;0.90;;
36653;SDS011;22650;49.350;20.898;2023-04-15T03:25:19;1.23;;;0.70;;
36653;SDS011;22650;49.350;20.898;2023-04-15T03:27:52;8.40;;;5.95;;
36653;SDS011;22650;49.350;20.898;2023-04-15T03:30:27;4.15;;;2.95;;
36653;SDS011;22650;49.350;20.898;2023-04-15T03:33:01;9.18;;;5.28;;
36653;SDS011;22650;49.350;20.898;2023-04-15T03:35:35;5.40;;;3.65;;
36653;SDS011;22650;49.350;20.898;2023-04-15T03:38:09;4.60;;;2.83;;
36653;SDS011;22650;49.350;20.898;2023-04-15T03:40:44;5.45;;;2.60;;
36653;SDS011;22650;49.350;20.898;2023-04-15T03:43:18;4.25;;;2.15;;
36653;SDS011;22650;49.350;20.898;2023-04-15T03:45:53;2.42;;;2.00;;
36653;SDS011;22650;49.350;20.898;2023-04-15T03:48:27;4.10;;;2.40;;
36653;SDS011;22650;49.350;20.898;2023-04-15T03:51:00;3.58;;;1.90;;
36653;SDS011;22650;49.350;20.898;2023-04-15T03:53:34;1.40;;;1.13;;
36653;SDS011;22650;49.350;20.898;2023-04-15T03:56:07;2.05;;;1.10;;
36653;SDS011;22650;49.350;20.898;2023-04-15T03:58:41;3.95;;;1.08;;
36653;SDS011;22650;49.350;20.898;2023-04-15T04:01:16;1.88;;;1.23;;
36653;SDS011;22650;49.350;20.898;2023-04-15T04:03:49;4.28;;;1.73;;
36653;SDS011;22650;49.350;20.898;2023-04-15T04:06:23;1.73;;;1.00;;
36653;SDS011;22650;49.350;20.898;2023-04-15T04:08:57;1.83;;;1.00;;
36653;SDS011;22650;49.350;20.898;2023-04-15T04:11:31;1.50;;;1.05;;
36653;SDS011;22650;49.350;20.898;2023-04-15T04:14:04;1.58;;;1.17;;
36653;SDS011;22650;49.350;20.898;2023-04-15T04:16:40;1.70;;;1.33;;
36653;SDS011;22650;49.350;20.898;2023-04-15T04:19:13;0.82;;;0.70;;
36653;SDS011;22650;49.350;20.898;2023-04-15T04:21:50;2.53;;;1.13;;
36653;SDS011;22650;49.350;20.898;2023-04-15T04:24:24;1.13;;;0.85;;
36653;SDS011;22650;49.350;20.898;2023-04-15T04:26:57;2.78;;;1.38;;
36653;SDS011;22650;49.350;20.898;2023-04-15T04:29:31;2.33;;;1.23;;
36653;SDS011;22650;49.350;20.898;2023-04-15T04:32:06;1.60;;;0.90;;
36653;SDS011;22650;49.350;20.898;2023-04-15T04:34:40;1.45;;;1.10;;
36653;SDS011;22650;49.350;20.898;2023-04-15T04:37:13;4.95;;;1.40;;
36653;SDS011;22650;49.350;20.898;2023-04-15T04:39:47;2.08;;;1.08;;
36653;SDS011;22650;49.350;20.898;2023-04-15T04:42:20;3.63;;;1.10;;
36653;SDS011;22650;49.350;20.898;2023-04-15T04:44:54;3.45;;;1.10;;
36653;SDS011;22650;49.350;20.898;2023-04-15T04:47:29;1.73;;;1.20;;
36653;SDS011;22650;49.350;20.898;2023-04-15T04:50:03;2.85;;;1.67;;
36653;SDS011;22650;49.350;20.898;2023-04-15T04:52:37;2.17;;;1.83;;
36653;SDS011;22650;49.350;20.898;2023-04-15T04:55:10;1.85;;;1.27;;
36653;SDS011;22650;49.350;20.898;2023-04-15T04:57:44;2.47;;;1.70;;
36653;SDS011;22650;49.350;20.898;2023-04-15T05:00:17;2.67;;;1.67;;
36653;SDS011;22650;49.350;20.898;2023-04-15T05:02:53;3.20;;;1.63;;
36653;SDS011;22650;49.350;20.898;2023-04-15T05:05:26;3.22;;;1.67;;
36653;SDS011;22650;49.350;20.898;2023-04-15T05:08:00;2.35;;;1.73;;
36653;SDS011;22650;49.350;20.898;2023-04-15T05:10:33;4.03;;;2.22;;
36653;SDS011;22650;49.350;20.898;2023-04-15T05:13:07;4.30;;;2.05;;
36653;SDS011;22650;49.350;20.898;2023-04-15T05:15:41;4.97;;;2.30;;
36653;SDS011;22650;49.350;20.898;2023-04-15T05:18:16;4.53;;;2.75;;
36653;SDS011;22650;49.350;20.898;2023-04-15T05:20:51;6.70;;;2.03;;
36653;SDS011;22650;49.350;20.898;2023-04-15T05:23:24;4.45;;;2.42;;
36653;SDS011;22650;49.350;20.898;2023-04-15T05:25:58;10.13;;;4.78;;
36653;SDS011;22650;49.350;20.898;2023-04-15T05:28:32;15.80;;;7.60;;
36653;SDS011;22650;49.350;20.898;2023-04-15T05:31:05;17.83;;;7.07;;
36653;SDS011;22650;49.350;20.898;2023-04-15T05:33:41;4.55;;;2.63;;
36653;SDS011;22650;49.350;20.898;2023-04-15T05:36:14;6.38;;;3.10;;
36653;SDS011;22650;49.350;20.898;2023-04-15T05:38:47;5.97;;;3.47;;
36653;SDS011;22650;49.350;20.898;2023-04-15T05:41:21;11.45;;;4.00;;
36653;SDS011;22650;49.350;20.898;2023-04-15T05:43:55;13.73;;;5.30;;
36653;SDS011;22650;49.350;20.898;2023-04-15T05:46:28;10.77;;;4.70;;
36653;SDS011;22650;49.350;20.898;2023-04-15T05:49:03;10.10;;;5.35;;
36653;SDS011;22650;49.350;20.898;2023-04-15T05:51:37;26.05;;;7.40;;
36653;SDS011;22650;49.350;20.898;2023-04-15T05:54:10;8.00;;;4.22;;
36653;SDS011;22650;49.350;20.898;2023-04-15T05:56:44;8.15;;;3.50;;
36653;SDS011;22650;49.350;20.898;2023-04-15T05:59:17;6.13;;;3.15;;
36653;SDS011;22650;49.350;20.898;2023-04-15T06:01:51;4.97;;;2.10;;
36653;SDS011;22650;49.350;20.898;2023-04-15T06:04:26;5.78;;;1.92;;
36653;SDS011;22650;49.350;20.898;2023-04-15T06:07:00;1.60;;;1.23;;
36653;SDS011;22650;49.350;20.898;2023-04-15T06:09:33;10.40;;;5.72;;
36653;SDS011;22650;49.350;20.898;2023-04-15T06:12:07;7.40;;;3.78;;
36653;SDS011;22650;49.350;20.898;2023-04-15T06:14:42;3.40;;;1.17;;
36653;SDS011;22650;49.350;20.898;2023-04-15T06:17:16;1.92;;;0.88;;
36653;SDS011;22650;49.350;20.898;2023-04-15T06:19:51;2.15;;;1.13;;
36653;SDS011;22650;49.350;20.898;2023-04-15T06:22:26;4.68;;;1.17;;
36653;SDS011;22650;49.350;20.898;2023-04-15T06:24:59;1.77;;;1.10;;
36653;SDS011;22650;49.350;20.898;2023-04-15T06:27:33;2.58;;;1.20;;
36653;SDS011;22650;49.350;20.898;2023-04-15T06:30:07;1.88;;;1.05;;
36653;SDS011;22650;49.350;20.898;2023-04-15T06:32:41;3.83;;;1.50;;
36653;SDS011;22650;49.350;20.898;2023-04-15T06:35:16;2.08;;;1.35;;
36653;SDS011;22650;49.350;20.898;2023-04-15T06:37:50;7.38;;;2.40;;
36653;SDS011;22650;49.350;20.898;2023-04-15T06:40:23;3.75;;;2.50;;
36653;SDS011;22650;49.350;20.898;2023-04-15T06:42:57;2.17;;;1.13;;
36653;SDS011;22650;49.350;20.898;2023-04-15T06:45:30;2.60;;;1.40;;
36653;SDS011;22650;49.350;20.898;2023-04-15T06:48:04;1.55;;;1.30;;
36653;SDS011;22650;49.350;20.898;2023-04-15T06:50:39;2.85;;;1.40;;
36653;SDS011;22650;49.350;20.898;2023-04-15T06:53:13;3.58;;;1.50;;
36653;SDS011;22650;49.350;20.898;2023-04-15T06:55:46;2.10;;;1.40;;
36653;SDS011;22650;49.350;20.898;2023-04-15T06:58:20;3.95;;;1.80;;
36653;SDS011;22650;49.350;20.898;2023-04-15T07:00:53;1.80;;;1.60;;
36653;SDS011;22650;49.350;20.898;2023-04-15T07:03:27;1.83;;;1.40;;
36653;SDS011;22650;49.350;20.898;2023-04-15T07:06:04;1.48;;;1.38;;
36653;SDS011;22650;49.350;20.898;2023-04-15T07:08:39;4.40;;;1.70;;
36653;SDS011;22650;49.350;20.898;2023-04-15T07:11:13;1.70;;;1.50;;
36653;SDS011;22650;49.350;20.898;2023-04-15T07:13:47;2.85;;;1.52;;
36653;SDS011;22650;49.350;20.898;2023-04-15T07:16:21;2.53;;;1.63;;
36653;SDS011;22650;49.350;20.898;2023-04-15T07:19:03;5.30;;;1.57;;
36653;SDS011;22650;49.350;20.898;2023-04-15T07:21:38;5.25;;;1.70;;
36653;SDS011;22650;49.350;20.898;2023-04-15T07:24:12;2.55;;;1.70;;
36653;SDS011;22650;49.350;20.898;2023-04-15T07:26:48;3.00;;;1.92;;
36653;SDS011;22650;49.350;20.898;2023-04-15T07:29:21;3.08;;;2.20;;
36653;SDS011;22650;49.350;20.898;2023-04-15T07:31:55;1.83;;;1.42;;
36653;SDS011;22650;49.350;20.898;2023-04-15T07:34:28;5.15;;;2.10;;
36653;SDS011;22650;49.350;20.898;2023-04-15T07:37:04;3.78;;;1.83;;
36653;SDS011;22650;49.350;20.898;2023-04-15T07:39:38;4.80;;;2.30;;
36653;SDS011;22650;49.350;20.898;2023-04-15T07:42:11;4.03;;;2.28;;
36653;SDS011;22650;49.350;20.898;2023-04-15T07:44:45;4.80;;;2.40;;
36653;SDS011;22650;49.350;20.898;2023-04-15T07:47:19;2.92;;;1.83;;
36653;SDS011;22650;49.350;20.898;2023-04-15T07:49:52;4.93;;;1.88;;
36653;SDS011;22650;49.350;20.898;2023-04-15T07:52:27;4.78;;;2.20;;
36653;SDS011;22650;49.350;20.898;2023-04-15T07:55:01;2.58;;;2.00;;
36653;SDS011;22650;49.350;20.898;2023-04-15T07:57:36;2.47;;;1.92;;
36653;SDS011;22650;49.350;20.898;2023-04-15T08:00:10;2.55;;;1.95;;
36653;SDS011;22650;49.350;20.898;2023-04-15T08:02:45;3.30;;;1.90;;
36653;SDS011;22650;49.350;20.898;2023-04-15T08:05:19;3.58;;;2.00;;
36653;SDS011;22650;49.350;20.898;2023-04-15T08:07:54;2.30;;;1.73;;
36653;SDS011;22650;49.350;20.898;2023-04-15T08:10:28;6.18;;;1.88;;
36653;SDS011;22650;49.350;20.898;2023-04-15T08:13:02;2.90;;;1.95;;
36653;SDS011;22650;49.350;20.898;2023-04-15T08:15:36;1.55;;;1.30;;
36653;SDS011;22650;49.350;20.898;2023-04-15T08:18:10;4.10;;;2.10;;
36653;SDS011;22650;49.350;20.898;2023-04-15T08:20:43;2.20;;;1.52;;
36653;SDS011;22650;49.350;20.898;2023-04-15T08:23:18;2.83;;;1.92;;
36653;SDS011;22650;49.350;20.898;2023-04-15T08:25:52;3.35;;;2.25;;
36653;SDS011;22650;49.350;20.898;2023-04-15T08:28:26;2.40;;;2.03;;
36653;SDS011;22650;49.350;20.898;2023-04-15T08:31:00;4.32;;;1.85;;
36653;SDS011;22650;49.350;20.898;2023-04-15T08:33:33;3.10;;;1.58;;
36653;SDS011;22650;49.350;20.898;2023-04-15T08:36:07;3.20;;;1.88;;
36653;SDS011;22650;49.350;20.898;2023-04-15T08:38:43;3.45;;;1.50;;
36653;SDS011;22650;49.350;20.898;2023-04-15T08:41:19;2.70;;;1.60;;
36653;SDS011;22650;49.350;20.898;2023-04-15T08:43:56;2.78;;;1.60;;
36653;SDS011;22650;49.350;20.898;2023-04-15T08:46:33;3.13;;;1.35;;
36653;SDS011;22650;49.350;20.898;2023-04-15T08:49:10;3.00;;;1.95;;
36653;SDS011;22650;49.350;20.898;2023-04-15T08:51:44;1.70;;;1.35;;
36653;SDS011;22650;49.350;20.898;2023-04-15T08:54:35;2.30;;;1.40;;
36653;SDS011;22650;49.350;20.898;2023-04-15T08:57:20;2.78;;;1.70;;
36653;SDS011;22650;49.350;20.898;2023-04-15T08:59:55;1.83;;;1.40;;
36653;SDS011;22650;49.350;20.898;2023-04-15T09:02:29;2.97;;;1.88;;
36653;SDS011;22650;49.350;20.898;2023-04-15T09:05:04;2.83;;;1.63;;
36653;SDS011;22650;49.350;20.898;2023-04-15T09:07:39;3.28;;;1.63;;
36653;SDS011;22650;49.350;20.898;2023-04-15T09:10:14;3.22;;;1.90;;
36653;SDS011;22650;49.350;20.898;2023-04-15T09:12:47;3.53;;;1.50;;
36653;SDS011;22650;49.350;20.898;2023-04-15T09:15:21;3.35;;;1.92;;
36653;SDS011;22650;49.350;20.898;2023-04-15T09:17:58;1.90;;;1.52;;
36653;SDS011;22650;49.350;20.898;2023-04-15T09:20:37;5.90;;;2.05;;
36653;SDS011;22650;49.350;20.898;2023-04-15T09:23:12;3.13;;;1.80;;
36653;SDS011;22650;49.350;20.898;2023-04-15T09:25:49;2.00;;;1.55;;
36653;SDS011;22650;49.350;20.898;2023-04-15T09:28:23;2.25;;;1.40;;
36653;SDS011;22650;49.350;20.898;2023-04-15T09:30:58;1.83;;;1.20;;
36653;SDS011;22650;49.350;20.898;2023-04-15T09:33:32;2.00;;;1.52;;
36653;SDS011;22650;49.350;20.898;2023-04-15T09:36:06;3.33;;;1.60;;
36653;SDS011;22650;49.350;20.898;2023-04-15T09:38:47;1.77;;;1.60;;
36653;SDS011;22650;49.350;20.898;2023-04-15T09:41:29;1.83;;;1.35;;
36653;SDS011;22650;49.350;20.898;2023-04-15T09:44:02;1.83;;;1.67;;
36653;SDS011;22650;49.350;20.898;2023-04-15T09:46:39;2.97;;;1.58;;
36653;SDS011;22650;49.350;20.898;2023-04-15T09:49:13;2.90;;;1.40;;
36653;SDS011;22650;49.350;20.898;2023-04-15T09:51:48;4.57;;;1.73;;
36653;SDS011;22650;49.350;20.898;2023-04-15T09:54:36;3.65;;;1.23;;
36653;SDS011;22650;49.350;20.898;2023-04-15T09:57:11;3.08;;;1.35;;
36653;SDS011;22650;49.350;20.898;2023-04-15T09:59:45;4.00;;;1.40;;
36653;SDS011;22650;49.350;20.898;2023-04-15T10:02:18;3.40;;;2.05;;
36653;SDS011;22650;49.350;20.898;2023-04-15T10:04:52;1.90;;;1.42;;
36653;SDS011;22650;49.350;20.898;2023-04-15T10:07:26;3.42;;;1.55;;
36653;SDS011;22650;49.350;20.898;2023-04-15T10:10:00;1.63;;;1.30;;
36653;SDS011;22650;49.350;20.898;2023-04-15T10:12:37;1.60;;;1.05;;
36653;SDS011;22650;49.350;20.898;2023-04-15T10:15:14;1.95;;;1.48;;
36653;SDS011;22650;49.350;20.898;2023-04-15T10:17:48;2.30;;;1.75;;
36653;SDS011;22650;49.350;20.898;2023-04-15T10:20:25;1.48;;;1.17;;
36653;SDS011;22650;49.350;20.898;2023-04-15T10:23:00;3.28;;;1.70;;
36653;SDS011;22650;49.350;20.898;2023-04-15T10:25:34;1.48;;;1.20;;
36653;SDS011;22650;49.350;20.898;2023-04-15T10:28:10;6.53;;;3.33;;
36653;SDS011;22650;49.350;20.898;2023-04-15T10:30:44;4.03;;;2.38;;
36653;SDS011;22650;49.350;20.898;2023-04-15T10:33:21;2.65;;;1.67;;
36653;SDS011;22650;49.350;20.898;2023-04-15T10:35:56;7.43;;;3.25;;
36653;SDS011;22650;49.350;20.898;2023-04-15T10:38:31;3.80;;;2.05;;
36653;SDS011;22650;49.350;20.898;2023-04-15T10:41:15;4.40;;;1.90;;
36653;SDS011;22650;49.350;20.898;2023-04-15T10:43:54;3.22;;;1.63;;
36653;SDS011;22650;49.350;20.898;2023-04-15T10:46:35;1.65;;;1.38;;
36653;SDS011;22650;49.350;20.898;2023-04-15T10:49:11;3.58;;;2.30;;
36653;SDS011;22650;49.350;20.898;2023-04-15T10:51:49;2.67;;;1.98;;
36653;SDS011;22650;49.350;20.898;2023-04-15T10:54:29;2.15;;;1.67;;
36653;SDS011;22650;49.350;20.898;2023-04-15T10:57:08;2.08;;;1.55;;
36653;SDS011;22650;49.350;20.898;2023-04-15T11:00:01;2.25;;;1.20;;
36653;SDS011;22650;49.350;20.898;2023-04-15T11:02:42;1.35;;;0.80;;
36653;SDS011;22650;49.350;20.898;2023-04-15T11:05:18;1.13;;;1.02;;
36653;SDS011;22650;49.350;20.898;2023-04-15T11:07:53;2.25;;;1.35;;
36653;SDS011;22650;49.350;20.898;2023-04-15T11:13:26;1.67;;;0.80;;
36653;SDS011;22650;49.350;20.898;2023-04-15T11:16:03;1.02;;;0.90;;
36653;SDS011;22650;49.350;20.898;2023-04-15T11:18:38;1.20;;;0.80;;
36653;SDS011;22650;49.350;20.898;2023-04-15T11:21:11;1.05;;;0.88;;
36653;SDS011;22650;49.350;20.898;2023-04-15T11:23:45;0.95;;;0.85;;
36653;SDS011;22650;49.350;20.898;2023-04-15T11:26:18;1.15;;;0.73;;
36653;SDS011;22650;49.350;20.898;2023-04-15T11:28:57;0.98;;;0.70;;
36653;SDS011;22650;49.350;20.898;2023-04-15T11:31:33;1.33;;;0.90;;
36653;SDS011;22650;49.350;20.898;2023-04-15T11:34:07;1.02;;;0.93;;
36653;SDS011;22650;49.350;20.898;2023-04-15T11:36:40;4.72;;;1.30;;
36653;SDS011;22650;49.350;20.898;2023-04-15T11:39:15;1.23;;;0.88;;
36653;SDS011;22650;49.350;20.898;2023-04-15T11:41:49;3.50;;;0.70;;
36653;SDS011;22650;49.350;20.898;2023-04-15T11:44:22;1.40;;;1.08;;
36653;SDS011;22650;49.350;20.898;2023-04-15T11:46:57;1.92;;;1.10;;
36653;SDS011;22650;49.350;20.898;2023-04-15T11:49:31;2.50;;;0.65;;
36653;SDS011;22650;49.350;20.898;2023-04-15T11:52:09;1.40;;;0.82;;
36653;SDS011;22650;49.350;20.898;2023-04-15T11:54:43;0.50;;;0.50;;
36653;SDS011;22650;49.350;20.898;2023-04-15T11:57:16;0.85;;;0.57;;
36653;SDS011;22650;49.350;20.898;2023-04-15T11:59:50;1.35;;;0.60;;
36653;SDS011;22650;49.350;20.898;2023-04-15T12:02:31;1.35;;;0.50;;
36653;SDS011;22650;49.350;20.898;2023-04-15T12:05:05;2.67;;;0.77;;
36653;SDS011;22650;49.350;20.898;2023-04-15T12:07:57;0.50;;;0.30;;
36653;SDS011;22650;49.350;20.898;2023-04-15T12:10:31;1.05;;;0.43;;
36653;SDS011;22650;49.350;20.898;2023-04-15T12:13:05;0.52;;;0.52;;
36653;SDS011;22650;49.350;20.898;2023-04-15T12:15:39;0.47;;;0.47;;
36653;SDS011;22650;49.350;20.898;2023-04-15T12:18:18;4.97;;;0.70;;
36653;SDS011;22650;49.350;20.898;2023-04-15T12:20:52;1.80;;;0.88;;
36653;SDS011;22650;49.350;20.898;2023-04-15T12:23:25;0.93;;;0.52;;
36653;SDS011;22650;49.350;20.898;2023-04-15T12:25:59;1.13;;;0.55;;
36653;SDS011;22650;49.350;20.898;2023-04-15T12:28:39;0.28;;;0.28;;
36653;SDS011;22650;49.350;20.898;2023-04-15T12:31:13;0.77;;;0.65;;
36653;SDS011;22650;49.350;20.898;2023-04-15T12:33:48;1.85;;;0.55;;
36653;SDS011;22650;49.350;20.898;2023-04-15T12:36:21;1.48;;;0.70;;
36653;SDS011;22650;49.350;20.898;2023-04-15T12:38:55;0.60;;;0.60;;
36653;SDS011;22650;49.350;20.898;2023-04-15T12:41:29;0.52;;;0.50;;
36653;SDS011;22650;49.350;20.898;2023-04-15T12:44:02;0.30;;;0.30;;
36653;SDS011;22650;49.350;20.898;2023-04-15T12:46:36;0.50;;;0.35;;
36653;SDS011;22650;49.350;20.898;2023-04-15T12:49:11;0.65;;;0.60;;
36653;SDS011;22650;49.350;20.898;2023-04-15T12:51:52;1.25;;;0.60;;
36653;SDS011;22650;49.350;20.898;2023-04-15T12:54:26;1.08;;;0.68;;
36653;SDS011;22650;49.350;20.898;2023-04-15T12:57:00;1.08;;;0.63;;
36653;SDS011;22650;49.350;20.898;2023-04-15T12:59:38;0.60;;;0.60;;
36653;SDS011;22650;49.350;20.898;2023-04-15T13:02:11;0.98;;;0.65;;
36653;SDS011;22650;49.350;20.898;2023-04-15T13:04:46;1.10;;;0.60;;
36653;SDS011;22650;49.350;20.898;2023-04-15T13:07:20;0.73;;;0.63;;
36653;SDS011;22650;49.350;20.898;2023-04-15T13:09:53;0.63;;;0.50;;
36653;SDS011;22650;49.350;20.898;2023-04-15T13:12:27;1.20;;;1.00;;
36653;SDS011;22650;49.350;20.898;2023-04-15T13:15:01;0.50;;;0.43;;
36653;SDS011;22650;49.350;20.898;2023-04-15T13:17:36;0.45;;;0.32;;
36653;SDS011;22650;49.350;20.898;2023-04-15T13:20:11;0.95;;;0.50;;
36653;SDS011;22650;49.350;20.898;2023-04-15T13:22:46;0.65;;;0.65;;
36653;SDS011;22650;49.350;20.898;2023-04-15T13:25:20;0.80;;;0.68;;
36653;SDS011;22650;49.350;20.898;2023-04-15T13:27:53;1.33;;;0.65;;
36653;SDS011;22650;49.350;20.898;2023-04-15T13:30:28;0.85;;;0.70;;
36653;SDS011;22650;49.350;20.898;2023-04-15T13:33:01;0.60;;;0.60;;
36653;SDS011;22650;49.350;20.898;2023-04-15T13:35:36;2.50;;;0.93;;
36653;SDS011;22650;49.350;20.898;2023-04-15T13:38:11;1.52;;;1.10;;
36653;SDS011;22650;49.350;20.898;2023-04-15T13:40:44;0.63;;;0.50;;
36653;SDS011;22650;49.350;20.898;2023-04-15T13:43:18;2.67;;;0.90;;
36653;SDS011;22650;49.350;20.898;2023-04-15T13:45:52;0.80;;;0.60;;
36653;SDS011;22650;49.350;20.898;2023-04-15T13:48:44;1.20;;;1.00;;
36653;SDS011;22650;49.350;20.898;2023-04-15T13:51:19;0.80;;;0.70;;
36653;SDS011;22650;49.350;20.898;2023-04-15T13:53:52;2.28;;;1.20;;
36653;SDS011;22650;49.350;20.898;2023-04-15T13:56:26;1.65;;;0.82;;
36653;SDS011;22650;49.350;20.898;2023-04-15T13:59:03;8.57;;;1.27;;
36653;SDS011;22650;49.350;20.898;2023-04-15T14:01:37;1.83;;;0.77;;
36653;SDS011;22650;49.350;20.898;2023-04-15T14:04:12;1.33;;;0.95;;
36653;SDS011;22650;49.350;20.898;2023-04-15T14:06:47;1.73;;;1.20;;
36653;SDS011;22650;49.350;20.898;2023-04-15T14:09:21;1.02;;;0.93;;
36653;SDS011;22650;49.350;20.898;2023-04-15T14:11:57;1.60;;;1.00;;
36653;SDS011;22650;49.350;20.898;2023-04-15T14:14:31;1.90;;;1.10;;
36653;SDS011;22650;49.350;20.898;2023-04-15T14:17:04;2.17;;;1.27;;
36653;SDS011;22650;49.350;20.898;2023-04-15T14:19:38;1.40;;;0.98;;
36653;SDS011;22650;49.350;20.898;2023-04-15T14:22:13;1.10;;;0.82;;
36653;SDS011;22650;49.350;20.898;2023-04-15T14:24:47;1.60;;;1.05;;
36653;SDS011;22650;49.350;20.898;2023-04-15T14:27:23;1.00;;;0.90;;
36653;SDS011;22650;49.350;20.898;2023-04-15T14:29:57;2.65;;;0.88;;
36653;SDS011;22650;49.350;20.898;2023-04-15T14:32:31;0.50;;;0.50;;
36653;SDS011;22650;49.350;20.898;2023-04-15T14:35:05;0.38;;;0.38;;
36653;SDS011;22650;49.350;20.898;2023-04-15T14:37:40;2.05;;;1.05;;
36653;SDS011;22650;49.350;20.898;2023-04-15T14:40:13;0.20;;;0.20;;
36653;SDS011;22650;49.350;20.898;2023-04-15T14:42:47;0.47;;;0.40;;
36653;SDS011;22650;49.350;20.898;2023-04-15T14:45:20;1.75;;;0.70;;
36653;SDS011;22650;49.350;20.898;2023-04-15T14:47:54;0.95;;;0.20;;
36653;SDS011;22650;49.350;20.898;2023-04-15T14:50:28;1.65;;;0.77;;
36653;SDS011;22650;49.350;20.898;2023-04-15T14:53:03;1.20;;;0.50;;
36653;SDS011;22650;49.350;20.898;2023-04-15T14:55:36;1.02;;;0.68;;
36653;SDS011;22650;49.350;20.898;2023-04-15T14:58:10;1.48;;;0.75;;
36653;SDS011;22650;49.350;20.898;2023-04-15T15:00:44;1.80;;;1.05;;
36653;SDS011;22650;49.350;20.898;2023-04-15T15:03:17;1.85;;;1.10;;
36653;SDS011;22650;49.350;20.898;2023-04-15T15:05:51;1.75;;;0.90;;
36653;SDS011;22650;49.350;20.898;2023-04-15T15:08:27;1.45;;;0.75;;
36653;SDS011;22650;49.350;20.898;2023-04-15T15:11:00;0.98;;;0.60;;
36653;SDS011;22650;49.350;20.898;2023-04-15T15:13:34;3.75;;;1.27;;
36653;SDS011;22650;49.350;20.898;2023-04-15T15:16:07;1.42;;;0.85;;
36653;SDS011;22650;49.350;20.898;2023-04-15T15:18:44;3.30;;;1.10;;
36653;SDS011;22650;49.350;20.898;2023-04-15T15:21:18;2.13;;;1.00;;
36653;SDS011;22650;49.350;20.898;2023-04-15T15:23:53;2.72;;;0.90;;